Friday, February 23, 2018, 1:42 PM EST
Back to Local

KCEF, Chicopee Falls / Westover Air Force Base

Location: Chicopee, MA, United States Lat: 42.2
Local Time: 1:42 PM EST (18:42 GMT) Lon: -72.533
Time Zone: US/Eastern Elev: 246 ft

Show me the last for .
Show Decoded

2018-02-23 13:21 METAR KCEF 231821Z 00000KT 4SM -RA BR BKN008 BKN019 OVC028 01/M01 A3051 RMK AO2A
                 PRESFR SLP341 =
2018-02-23 12:56 METAR KCEF 231756Z 00000KT 3SM -RA OVC020 02/M01 A3054 RMK AO2A SLP351 P0000
                 60000 T00171010 10018 21057 57025 =
2018-02-23 12:47 METAR KCEF 231747Z 00000KT 10SM -RA OVC020 02/M01 A3054 RMK AO2A SLP351 =
2018-02-23 12:11 METAR KCEF 231711Z COR 00000KT 10SM BKN023 OVC055 01/M01 A3056 RMK AO2A SLP358
                 COR 1716 =
2018-02-23 11:56 METAR KCEF 231656Z 00000KT 10SM SCT015 BKN055 BKN080 02/M01 A3056 RMK AO2A
                 SLP358 P0000 T00151014 =
2018-02-23 11:33 METAR KCEF 231633Z COR 00000KT 10SM FEW015 BKN055 BKN070 01/M02 A3057 RMK AO2A
                 PRESFR SLP361 COR 1634 =
2018-02-23 11:15 METAR KCEF 231615Z 00000KT 10SM -RA SCT018 BKN050 BKN070 01/M02 A3059 RMK AO2A
                 SLP368 =
2018-02-23 10:56 METAR KCEF 231556Z 00000KT 10SM SCT017 BKN080 BKN150 01/M02 A3060 RMK AO2A
                 SLP371 T00071020 =
2018-02-23 09:56 METAR KCEF 231456Z 00000KT 10SM FEW020 BKN100 BKN160 00/M03 A3062 RMK AO2A
                 SLP378 T10031028 58019 $ =
2018-02-23 08:56 METAR KCEF 231356Z 00000KT 10SM BKN090 BKN150 BKN210 M01/M02 A3066 RMK AO2A
                 SLP392 T10121019 $ =
2018-02-23 07:56 METAR KCEF 231256Z 00000KT 10SM FEW120 BKN210 M03/M03 A3067 RMK AO2A SLP395
                 T10281035 $ =
2018-02-23 06:56 METAR KCEF 231156Z 00000KT 10SM FEW050 SCT210 M05/M06 A3068 RMK AO2A SLP399
                 70009 4/001 T10541065 11019 21054 50011 =
2018-02-23 05:56 METAR KCEF 231056Z AUTO 00000KT 8SM SCT210 M04/M05 A3066 RMK AO2 SLP392
                 T10391047 =
2018-02-23 04:56 METAR KCEF 230956Z AUTO 00000KT 5SM BR FEW220 M04/M05 A3067 RMK AO2 SLP395
                 T10401048 =
2018-02-23 03:56 METAR KCEF 230856Z AUTO 00000KT 10SM SCT060 M03/M04 A3064 RMK AO2 SLP385
                 T10311039 58010 =
2018-02-23 02:56 METAR KCEF 230756Z AUTO 04004KT 10SM OVC060 M02/M02 A3067 RMK AO2 SLP395
                 T10191025 =
2018-02-23 01:56 METAR KCEF 230656Z AUTO 00000KT 10SM OVC060 M03/M03 A3069 RMK AO2 SLP402
                 T10271034 =
2018-02-23 01:30 METAR KCEF 230630Z AUTO 00000KT 10SM OVC065 M03/M04 A3068 RMK AO2 SLP398 =
2018-02-23 01:15 METAR KCEF 230615Z AUTO 16003KT 1 1/8SM R23/6000FT BR BKN065 M03/M04 A3068 RMK
                 AO2 VIS 7/8V6 SLP398 =
2018-02-23 01:12 METAR KCEF 230612Z AUTO 17003KT 7/8SM R23/4000VP6000FT BR SCT065 M03/M04 A3068
                 RMK AO2 VIS 7/8V8 SLP398 =
2018-02-23 01:11 METAR KCEF 230611Z AUTO 17003KT 1 3/8SM BR SCT065 M03/M04 A3068 RMK AO2 VIS 1
                 3/8V9 SLP398 =
2018-02-23 00:56 METAR KCEF 230556Z AUTO 00000KT 4SM BR FEW065 M03/M04 A3067 RMK AO2 SLP395
                 T10331040 10000 21041 58002 =
2018-02-23 00:52 METAR KCEF 230552Z AUTO 00000KT 1 1/8SM BR FEW065 M03/M04 A3067 RMK AO2 VIS
                 5/8V1 1/8 SLP395 =
2018-02-23 00:41 METAR KCEF 230541Z AUTO 00000KT 5/8SM R23/3000V5000FT BR FEW065 M04/M05 A3068
                 RMK AO2 SLP398 =
2018-02-23 00:26 METAR KCEF 230526Z AUTO 00000KT 3/4SM R23/3000V4500FT BR CLR M03/M04 A3067 RMK
                 AO2 SLP395 =
2018-02-23 00:11 METAR KCEF 230511Z AUTO 00000KT 5/8SM R23/2800V4000FT BR FEW065 M04/M05 A3067
                 RMK AO2 SLP395 =
2018-02-22 23:58 METAR KCEF 230458Z AUTO 00000KT 1SM R23/4500VP6000FT BR BKN065 M03/M04 A3068 RMK
                 AO2 VIS 1V3 SLP398 =
2018-02-22 23:56 METAR KCEF 230456Z AUTO 00000KT 1 5/8SM BR BKN065 M03/M04 A3068 RMK AO2 VIS 1
                 5/8V3 SLP398 T10341042 401071034 =
2018-02-22 23:41 METAR KCEF 230441Z AUTO 00000KT 1 1/4SM BR BKN065 M03/M04 A3068 RMK AO2 VIS 1
                 1/4V2 1/2 SLP398 =
2018-02-22 22:56 METAR KCEF 230356Z 35003KT 10SM SCT250 M02/M02 A3068 RMK AO2A SLP398 T10181022 =
2018-02-22 21:56 METAR KCEF 230256Z 00000KT 9SM FEW004 FEW250 M02/M02 A3068 RMK AO2A SLP398
                 T10161022 53013 =
2018-02-22 20:56 METAR KCEF 230156Z 03006KT 10SM SCT004 M01/M02 A3066 RMK AO2A SLP391 T10121019 =
2018-02-22 20:21 METAR KCEF 230121Z 35006KT 10SM FEW002 SCT250 M01/M01 A3065 RMK AO2A SLP388 =
2018-02-22 19:56 METAR KCEF 230056Z 36004KT 10SM BKN250 M01/M01 A3064 RMK AO2A SLP384 T10091015 =
2018-02-22 18:56 METAR KCEF 222356Z COR 00000KT 10SM FEW005 BKN090 00/M01 A3064 RMK AO2A SLP384
                 60009 4/001 T00001009 10042 20000 50002 COR 0006 =
2018-02-22 18:43 METAR KCEF 222343Z 00000KT 10SM SCT024 OVC090 00/M01 A3065 RMK AO2A SLP388 =
2018-02-22 17:56 METAR KCEF 222256Z 06003KT 6SM -SN BR FEW028 BKN047 OVC090 00/M01 A3065 RMK AO2A
                 SLP388 T00001009 =
2018-02-22 17:51 METAR KCEF 222251Z 05004KT 6SM -SN BR FEW028 BKN047 OVC095 00/M01 A3065 RMK AO2A
                 SLP388 =
2018-02-22 16:56 METAR KCEF 222156Z 03009KT 1 3/4SM -SN BR BKN012 OVC028 00/M01 A3066 RMK AO2A
                 SLP391 T00011010 =
2018-02-22 16:28 METAR KCEF 222128Z 03010KT 1 3/4SM -SN BR FEW005 BKN012 OVC030 00/M01 A3064 RMK
                 AO2A SLP384 =
2018-02-22 15:56 METAR KCEF 222056Z 03008KT 1 1/4SM -SN BR FEW005 BKN012 OVC030 00/M01 A3063 RMK
                 AO2A SLP381 60003 T00031007 53014 =
2018-02-22 15:09 METAR KCEF 222009Z 03007KT 1 1/4SM -SN BR OVC032 01/M01 A3061 RMK AO2A SLP374 =
2018-02-22 14:56 METAR KCEF 221956Z 01007KT 2 1/2SM -SN BR OVC032 01/M02 A3062 RMK AO2A SLP377
                 T00101022 =
2018-02-22 14:31 METAR KCEF 221931Z 03006KT 2SM -SN BR OVC038 03/M05 A3060 RMK AO2A SLP370 =
2018-02-22 13:56 METAR KCEF 221856Z 02008KT 10SM -SNPL FEW044 OVC060 04/M08 A3058 RMK AO2A SLP363
                 P0000 T00411077 =
2018-02-22 13:43 METAR KCEF 221843Z 02006KT 10SM -SNPL OVC055 04/M08 A3059 RMK AO2A SLP367 =

Support USWX by starting your Amazon purchase here.